createdAt,value
2019-05-02T00:01:40.114Z,5.10
2019-05-02T00:04:12.447Z,5.60
2019-05-02T00:06:42.973Z,4.40
2019-05-02T00:09:11.171Z,7.40
2019-05-02T00:11:40.112Z,5.97
2019-05-02T00:14:09.106Z,4.00
2019-05-02T00:16:37.953Z,5.03
2019-05-02T00:19:09.055Z,5.57
2019-05-02T00:21:38.133Z,5.10
2019-05-02T00:24:10.343Z,5.73
2019-05-02T00:26:38.874Z,4.13
2019-05-02T00:29:07.333Z,6.43
2019-05-02T00:31:35.823Z,5.27
2019-05-02T00:34:04.467Z,5.17
2019-05-02T00:36:32.968Z,5.30
2019-05-02T00:39:01.413Z,4.30
2019-05-02T00:41:33.210Z,4.40
2019-05-02T00:44:05.988Z,5.17
2019-05-02T00:46:34.926Z,4.50
2019-05-02T00:49:02.983Z,4.73
2019-05-02T00:51:31.506Z,5.70
2019-05-02T00:54:01.831Z,5.97
2019-05-02T00:56:30.608Z,4.67
2019-05-02T00:59:02.266Z,5.73
2019-05-02T01:01:51.531Z,6.43
2019-05-02T01:04:27.683Z,4.23
2019-05-02T01:06:55.721Z,6.40
2019-05-02T01:09:24.173Z,6.23
2019-05-02T01:11:52.975Z,4.80
2019-05-02T01:14:21.542Z,6.80
2019-05-02T01:16:54.446Z,8.63
2019-05-02T01:19:20.287Z,4.43
2019-05-02T01:21:49.588Z,6.43
2019-05-02T01:24:18.064Z,6.30
2019-05-02T01:27:11.881Z,6.20
2019-05-02T01:29:55.003Z,5.80
2019-05-02T01:32:42.973Z,4.87
2019-05-02T01:35:31.638Z,4.63
2019-05-02T01:38:17.155Z,5.20
2019-05-02T01:40:52.595Z,5.90
2019-05-02T01:43:25.516Z,4.67
2019-05-02T01:45:54.298Z,7.00
2019-05-02T01:48:22.996Z,8.00
2019-05-02T01:50:52.873Z,6.93
2019-05-02T01:53:21.500Z,4.10
2019-05-02T01:55:51.969Z,5.07
2019-05-02T01:58:22.512Z,4.80
2019-05-02T02:00:51.804Z,5.13
2019-05-02T02:03:20.377Z,5.70
2019-05-02T02:05:48.878Z,5.97
2019-05-02T02:08:17.349Z,6.27
2019-05-02T02:10:50.581Z,6.83
2019-05-02T02:13:16.113Z,6.57
2019-05-02T02:15:44.606Z,8.67
2019-05-02T02:18:14.586Z,6.67
2019-05-02T02:21:02.496Z,6.87
2019-05-02T02:23:44.969Z,6.60
2019-05-02T02:26:13.907Z,6.83
2019-05-02T02:28:43.030Z,5.57
2019-05-02T02:31:11.518Z,7.63
2019-05-02T02:33:40.820Z,6.83
2019-05-02T02:36:10.269Z,6.63
2019-05-02T02:38:38.748Z,6.73
2019-05-02T02:41:13.243Z,5.37
2019-05-02T02:43:37.454Z,6.50
2019-05-02T02:46:11.611Z,8.60
2019-05-02T02:48:42.480Z,4.80
2019-05-02T02:51:22.721Z,5.47
2019-05-02T02:53:40.834Z,7.37
2019-05-02T02:56:12.136Z,5.67
2019-05-02T02:58:59.751Z,7.30
2019-05-02T03:01:39.448Z,6.23
2019-05-02T03:04:11.768Z,6.33
2019-05-02T03:06:45.054Z,7.70
2019-05-02T03:09:10.422Z,7.00
2019-05-02T03:11:49.149Z,6.50
2019-05-02T03:14:22.574Z,30.20
2019-05-02T03:16:51.048Z,8.73
2019-05-02T03:19:21.110Z,8.17
2019-05-02T03:21:54.445Z,8.07
2019-05-02T03:24:24.524Z,7.63
2019-05-02T03:26:55.261Z,8.37
2019-05-02T03:29:24.424Z,6.47
2019-05-02T03:32:12.280Z,7.30
2019-05-02T03:34:23.232Z,7.20
2019-05-02T03:36:51.636Z,6.73
2019-05-02T03:39:20.736Z,7.43
2019-05-02T03:41:55.707Z,8.07
2019-05-02T03:44:25.849Z,7.50
2019-05-02T03:46:54.263Z,10.70
2019-05-02T03:49:19.984Z,10.53
2019-05-02T03:51:48.817Z,10.13
2019-05-02T03:54:19.983Z,9.17
2019-05-02T03:56:51.272Z,8.00
2019-05-02T03:59:18.502Z,7.70
2019-05-02T04:01:47.417Z,8.23
2019-05-02T04:04:20.802Z,6.27
2019-05-02T04:06:46.758Z,9.73
2019-05-02T04:09:39.243Z,5.73
2019-05-02T04:12:05.276Z,6.83
2019-05-02T04:14:38.027Z,5.93
2019-05-02T04:17:04.406Z,6.57
2019-05-02T04:19:34.845Z,6.53
2019-05-02T04:22:08.650Z,6.03
2019-05-02T04:24:34.154Z,9.47
2019-05-02T04:27:02.924Z,6.63
2019-05-02T04:29:33.263Z,8.13
2019-05-02T04:32:04.508Z,6.47
2019-05-02T04:34:32.289Z,9.53
2019-05-02T04:37:03.675Z,7.43
2019-05-02T04:39:31.116Z,7.37
2019-05-02T04:42:05.371Z,8.57
2019-05-02T04:44:41.139Z,4.57
2019-05-02T04:47:11.094Z,6.73
2019-05-02T04:49:35.623Z,5.63
2019-05-02T04:52:07.015Z,5.23
2019-05-02T04:54:32.559Z,6.40
2019-05-02T04:57:02.852Z,6.23
2019-05-02T04:59:33.228Z,9.07
2019-05-02T05:02:01.988Z,3.80
2019-05-02T05:04:33.337Z,3.73
2019-05-02T05:07:01.264Z,5.10
2019-05-02T05:09:30.056Z,3.40
2019-05-02T05:12:02.431Z,4.53
2019-05-02T05:14:32.872Z,5.03
2019-05-02T05:16:59.137Z,3.83
2019-05-02T05:19:30.895Z,6.67
2019-05-02T05:22:04.370Z,3.67
2019-05-02T05:24:42.689Z,4.40
2019-05-02T05:27:13.426Z,4.67
2019-05-02T05:29:41.436Z,4.83
2019-05-02T05:32:10.306Z,6.63
2019-05-02T05:34:38.941Z,5.00
2019-05-02T05:37:09.458Z,3.57
2019-05-02T05:39:38.226Z,4.80
2019-05-02T05:42:08.366Z,3.73
2019-05-02T05:44:37.496Z,3.33
2019-05-02T05:47:12.060Z,4.90
2019-05-02T05:49:38.863Z,3.23
2019-05-02T05:52:08.086Z,3.97
2019-05-02T05:54:41.856Z,4.97
2019-05-02T05:57:12.226Z,6.37
2019-05-02T05:59:38.371Z,2.70
2019-05-02T06:02:13.066Z,3.93
2019-05-02T06:04:38.780Z,3.53
2019-05-02T06:07:07.407Z,3.47
2019-05-02T06:09:35.759Z,5.13
2019-05-02T06:12:04.260Z,6.07
2019-05-02T06:14:34.452Z,4.73
2019-05-02T06:17:02.938Z,7.33
2019-05-02T06:19:31.400Z,9.63
2019-05-02T06:21:59.951Z,4.33
2019-05-02T06:24:28.385Z,7.73
2019-05-02T06:26:56.850Z,6.83
2019-05-02T06:29:25.340Z,8.07
2019-05-02T06:31:53.745Z,5.23
2019-05-02T06:34:22.303Z,6.37
2019-05-02T06:36:50.794Z,4.97
2019-05-02T06:39:19.212Z,4.33
2019-05-02T06:41:52.005Z,6.57
2019-05-02T06:44:18.480Z,5.03
2019-05-02T06:46:48.231Z,4.67
2019-05-02T06:49:16.661Z,6.90
2019-05-02T06:51:45.190Z,5.90
2019-05-02T06:54:13.601Z,5.77
2019-05-02T06:56:43.053Z,5.63
2019-05-02T06:59:13.195Z,6.80
2019-05-02T07:01:42.510Z,6.10
2019-05-02T07:04:11.051Z,6.03
2019-05-02T07:06:55.970Z,7.13
2019-05-02T07:09:09.957Z,7.27
2019-05-02T07:11:40.623Z,6.13
2019-05-02T07:14:13.552Z,5.20
2019-05-02T07:17:05.625Z,4.27
2019-05-02T07:19:43.733Z,4.47
2019-05-02T07:22:12.236Z,4.67
2019-05-02T07:24:40.663Z,4.90
2019-05-02T07:27:09.147Z,6.00
2019-05-02T07:29:37.558Z,4.07
2019-05-02T07:32:06.053Z,5.87
2019-05-02T07:34:34.493Z,6.30
2019-05-02T07:37:02.975Z,6.43
2019-05-02T07:39:31.599Z,4.63
2019-05-02T07:42:05.303Z,5.37
2019-05-02T07:44:32.635Z,3.80
2019-05-02T07:47:02.466Z,6.30
2019-05-02T07:49:32.483Z,5.47
2019-05-02T07:52:01.788Z,3.50
2019-05-02T07:54:30.213Z,3.03
2019-05-02T07:56:58.668Z,3.47
2019-05-02T07:59:27.170Z,3.77
2019-05-02T08:01:55.566Z,4.93
2019-05-02T08:04:23.981Z,3.13
2019-05-02T08:06:52.619Z,4.20
2019-05-02T08:09:21.210Z,2.20
2019-05-02T08:11:49.704Z,3.80
2019-05-02T08:14:18.161Z,3.50
2019-05-02T08:16:46.701Z,3.00
2019-05-02T08:19:15.142Z,4.87
2019-05-02T08:21:43.600Z,2.83
2019-05-02T08:24:13.115Z,3.87
2019-05-02T08:26:58.244Z,3.00
2019-05-02T08:29:28.881Z,4.08
2019-05-02T08:31:57.874Z,3.15
2019-05-02T08:34:30.631Z,2.77
2019-05-02T08:37:03.168Z,2.60
2019-05-02T08:39:33.463Z,4.78
2019-05-02T08:42:00.033Z,2.20
2019-05-02T08:44:28.474Z,4.85
2019-05-02T08:46:56.878Z,3.23
2019-05-02T08:49:25.475Z,4.07
2019-05-02T08:51:53.896Z,3.22
2019-05-02T08:54:22.365Z,2.33
2019-05-02T08:56:53.489Z,3.87
2019-05-02T08:59:24.540Z,4.55
2019-05-02T09:01:51.542Z,3.98
2019-05-02T09:04:24.075Z,3.12
2019-05-02T09:06:53.246Z,2.55
2019-05-02T09:09:22.753Z,6.17
2019-05-02T09:12:04.826Z,2.95
2019-05-02T09:14:21.672Z,4.20
2019-05-02T09:16:52.230Z,3.90
2019-05-02T09:19:24.919Z,4.05
2019-05-02T09:21:52.580Z,5.42
2019-05-02T09:24:23.169Z,4.42
2019-05-02T09:26:51.909Z,2.80
2019-05-02T09:29:22.293Z,5.08
2019-05-02T09:31:52.535Z,4.60
2019-05-02T09:34:22.768Z,3.87
2019-05-02T09:36:52.933Z,3.35
2019-05-02T09:39:22.744Z,4.08
2019-05-02T09:41:52.635Z,4.20
2019-05-02T09:44:22.422Z,4.05
2019-05-02T09:46:53.094Z,4.53
2019-05-02T09:49:22.146Z,4.72
2019-05-02T09:51:59.332Z,2.45
2019-05-02T09:54:23.169Z,4.28
2019-05-02T09:56:52.484Z,5.33
2019-05-02T09:59:30.099Z,5.92
2019-05-02T10:01:55.913Z,5.95
2019-05-02T10:04:24.331Z,2.37
2019-05-02T10:06:52.863Z,5.03
2019-05-02T10:09:27.020Z,2.72
2019-05-02T10:11:53.515Z,2.60
2019-05-02T10:14:22.570Z,3.08
2019-05-02T10:16:52.964Z,3.42
2019-05-02T10:19:25.733Z,2.37
2019-05-02T10:21:56.269Z,2.42
2019-05-02T10:24:22.309Z,2.10
2019-05-02T10:26:55.192Z,2.58
2019-05-02T10:29:28.102Z,3.95
2019-05-02T10:31:52.690Z,2.95
2019-05-02T10:34:22.677Z,2.60
2019-05-02T10:36:58.314Z,2.60
2019-05-02T10:39:23.496Z,3.47
2019-05-02T10:41:52.700Z,4.87
2019-05-02T10:44:22.537Z,2.70
2019-05-02T10:46:56.873Z,2.08
2019-05-02T10:49:32.098Z,2.70
2019-05-02T10:52:02.607Z,2.47
2019-05-02T10:54:33.734Z,4.58
2019-05-02T10:57:02.427Z,4.83
2019-05-02T10:59:32.620Z,4.65
2019-05-02T11:02:26.248Z,4.10
2019-05-02T11:04:58.507Z,2.52
2019-05-02T11:07:27.394Z,4.35
2019-05-02T11:09:57.215Z,3.27
2019-05-02T11:12:41.869Z,4.78
2019-05-02T11:15:29.590Z,3.33
2019-05-02T11:17:58.530Z,2.37
2019-05-02T11:20:27.376Z,3.45
2019-05-02T11:22:55.831Z,4.17
2019-05-02T11:25:24.344Z,1.90
2019-05-02T11:27:57.371Z,3.05
2019-05-02T11:30:26.580Z,3.22
2019-05-02T11:32:53.526Z,3.40
2019-05-02T11:35:22.435Z,4.28
2019-05-02T11:37:51.674Z,4.58
2019-05-02T11:40:20.220Z,2.55
2019-05-02T11:42:48.680Z,3.30
2019-05-02T11:45:17.303Z,2.10
2019-05-02T11:47:46.165Z,2.92
2019-05-02T11:50:16.247Z,3.42
2019-05-02T11:52:45.915Z,4.87
2019-05-02T11:55:18.910Z,3.10
2019-05-02T11:57:45.052Z,3.90
2019-05-02T12:00:14.522Z,2.60
2019-05-02T12:03:03.542Z,2.37
2019-05-02T12:05:39.193Z,3.00
2019-05-02T12:08:07.750Z,3.92
2019-05-02T12:10:37.084Z,2.45
2019-05-02T12:13:06.557Z,3.35
2019-05-02T12:15:35.920Z,2.72
2019-05-02T12:18:05.093Z,1.75
2019-05-02T12:20:51.789Z,2.72
2019-05-02T12:23:20.057Z,2.55
2019-05-02T12:25:48.762Z,1.77
2019-05-02T12:28:17.235Z,4.23
2019-05-02T12:30:45.870Z,2.00
2019-05-02T12:33:14.610Z,2.47
2019-05-02T12:35:43.405Z,2.42
2019-05-02T12:38:12.361Z,2.95
2019-05-02T12:40:42.410Z,6.00
2019-05-02T12:43:12.035Z,4.55
2019-05-02T12:45:42.175Z,2.40
2019-05-02T12:48:13.005Z,2.42
2019-05-02T12:50:42.730Z,2.08
2019-05-02T12:53:12.808Z,3.05
2019-05-02T12:55:42.204Z,3.85
2019-05-02T12:58:12.532Z,5.55
2019-05-02T13:00:43.122Z,3.45
2019-05-02T13:03:33.803Z,2.87
2019-05-02T13:06:03.008Z,3.08
2019-05-02T13:08:32.345Z,4.30
2019-05-02T13:11:26.258Z,3.87
2019-05-02T13:13:54.966Z,2.67
2019-05-02T13:16:23.493Z,2.85
2019-05-02T13:18:52.112Z,3.40
2019-05-02T13:21:38.743Z,3.27
2019-05-02T13:24:16.712Z,4.05
2019-05-02T13:26:45.111Z,2.87
2019-05-02T13:29:13.650Z,2.77
2019-05-02T13:31:59.185Z,3.27
2019-05-02T13:34:33.318Z,2.57
2019-05-02T13:37:02.930Z,2.70
2019-05-02T13:39:37.803Z,5.30
2019-05-02T13:42:06.560Z,3.23
2019-05-02T13:44:38.630Z,2.53
2019-05-02T13:47:12.167Z,2.63
2019-05-02T13:49:51.421Z,3.40
2019-05-02T13:52:11.787Z,3.10
2019-05-02T13:54:40.399Z,2.25
2019-05-02T13:57:12.156Z,2.80
2019-05-02T13:59:41.762Z,3.37
2019-05-02T14:02:32.576Z,4.45
2019-05-02T14:05:02.319Z,2.77
2019-05-02T14:07:32.908Z,2.60
2019-05-02T14:10:04.930Z,3.30
2019-05-02T14:12:53.585Z,4.53
2019-05-02T14:15:24.481Z,2.23
2019-05-02T14:17:55.189Z,4.43
2019-05-02T14:20:23.673Z,2.10
2019-05-02T14:22:52.769Z,1.98
2019-05-02T14:25:22.329Z,4.13
2019-05-02T14:27:53.870Z,3.35
2019-05-02T14:30:36.064Z,3.33
2019-05-02T14:32:53.353Z,3.08
2019-05-02T14:35:28.291Z,4.30
2019-05-02T14:38:13.286Z,4.50
2019-05-02T14:41:07.921Z,3.60
2019-05-02T14:43:48.577Z,5.23
2019-05-02T14:46:18.574Z,3.77
2019-05-02T14:48:48.410Z,7.00
2019-05-02T14:51:23.060Z,4.50
2019-05-02T14:53:48.053Z,3.23
2019-05-02T14:56:46.226Z,2.80
2019-05-02T14:59:15.163Z,3.30
2019-05-02T15:01:47.851Z,3.80
2019-05-02T15:04:16.334Z,3.33
2019-05-02T15:06:47.399Z,6.03
2019-05-02T15:09:16.628Z,4.83
2019-05-02T15:11:57.572Z,4.03
2019-05-02T15:14:28.989Z,3.30
2019-05-02T15:16:58.695Z,3.97
2019-05-02T15:19:27.313Z,3.47
2019-05-02T15:21:56.201Z,4.33
2019-05-02T15:24:27.639Z,1.73
2019-05-02T15:26:55.141Z,2.40
2019-05-02T15:29:26.993Z,5.23
2019-05-02T15:32:07.161Z,3.00
2019-05-02T15:34:52.512Z,2.87
2019-05-02T15:37:25.668Z,3.23
2019-05-02T15:42:25.548Z,4.77
2019-05-02T15:44:57.124Z,3.00
2019-05-02T15:47:24.653Z,3.10
2019-05-02T15:49:53.289Z,1.57
2019-05-02T15:52:27.882Z,2.57
2019-05-02T15:55:00.394Z,5.10
2019-05-02T15:57:26.736Z,5.20
2019-05-02T15:59:55.301Z,3.23
2019-05-02T16:02:26.854Z,3.00
2019-05-02T16:04:56.987Z,2.10
2019-05-02T16:07:26.573Z,2.60
2019-05-02T16:09:59.327Z,3.57
2019-05-02T16:12:27.174Z,3.23
2019-05-02T16:14:55.762Z,2.47
2019-05-02T16:17:27.916Z,5.07
2019-05-02T16:20:07.669Z,1.93
2019-05-02T16:22:30.672Z,2.93
2019-05-02T16:25:01.682Z,3.80
2019-05-02T16:27:46.978Z,2.67
2019-05-02T16:30:18.496Z,2.23
2019-05-02T16:32:58.105Z,2.57
2019-05-02T16:35:27.693Z,2.43
2019-05-02T16:37:56.239Z,2.97
2019-05-02T16:40:29.895Z,2.47
2019-05-02T16:42:55.931Z,6.17
2019-05-02T16:45:24.823Z,4.27
2019-05-02T16:47:58.626Z,4.47
2019-05-02T16:50:27.553Z,7.13
2019-05-02T16:52:55.470Z,3.60
2019-05-02T16:55:26.590Z,2.53
2019-05-02T16:57:56.729Z,4.03
2019-05-02T17:00:25.413Z,3.87
2019-05-02T17:02:53.974Z,4.43
2019-05-02T17:05:22.473Z,3.63
2019-05-02T17:08:10.578Z,4.50
2019-05-02T17:11:01.821Z,2.00
2019-05-02T17:13:34.253Z,5.90
2019-05-02T17:16:06.465Z,3.70
2019-05-02T17:18:32.715Z,11.10
2019-05-02T17:21:01.730Z,4.60
2019-05-02T17:23:30.351Z,4.97
2019-05-02T17:25:58.853Z,2.70
2019-05-02T17:28:29.487Z,3.90
2019-05-02T17:30:58.028Z,4.50
2019-05-02T17:33:26.411Z,8.90
2019-05-02T17:35:54.901Z,3.93
2019-05-02T17:38:27.316Z,3.57
2019-05-02T17:40:54.430Z,4.33
2019-05-02T17:43:24.845Z,3.80
2019-05-02T17:45:53.323Z,5.67
2019-05-02T17:48:21.771Z,5.13
2019-05-02T17:51:12.394Z,5.57
2019-05-02T17:53:48.009Z,3.97
2019-05-02T17:56:13.051Z,3.60
2019-05-02T17:58:47.386Z,4.60
2019-05-02T18:01:17.706Z,4.37
2019-05-02T18:03:46.123Z,7.43
2019-05-02T18:06:17.220Z,2.80
2019-05-02T18:08:46.200Z,2.73
2019-05-02T18:11:16.001Z,4.70
2019-05-02T18:13:44.475Z,4.70
2019-05-02T18:16:16.624Z,3.53
2019-05-02T18:18:46.617Z,4.03
2019-05-02T18:21:17.733Z,5.23
2019-05-02T18:23:45.165Z,3.90
2019-05-02T18:26:13.711Z,5.47
2019-05-02T18:28:48.611Z,3.63
2019-05-02T18:31:12.516Z,4.40
2019-05-02T18:33:42.490Z,4.87
2019-05-02T18:36:11.197Z,6.43
2019-05-02T18:39:00.530Z,4.40
2019-05-02T18:41:25.376Z,4.23
2019-05-02T18:43:56.783Z,6.60
2019-05-02T18:46:25.295Z,4.00
2019-05-02T18:49:12.346Z,5.70
2019-05-02T18:51:43.608Z,4.23
2019-05-02T18:54:14.523Z,6.33
2019-05-02T18:56:49.455Z,3.77
2019-05-02T18:59:19.876Z,4.90
2019-05-02T19:01:47.382Z,4.07
2019-05-02T19:04:16.692Z,5.20
2019-05-02T19:06:45.204Z,3.43
2019-05-02T19:09:17.536Z,5.93
2019-05-02T19:11:44.211Z,5.70
2019-05-02T19:14:16.713Z,4.60
2019-05-02T19:17:05.494Z,8.33
2019-05-02T19:19:36.843Z,5.90
2019-05-02T19:22:07.408Z,5.13
2019-05-02T19:24:37.667Z,5.27
2019-05-02T19:27:06.816Z,3.90
2019-05-02T19:29:39.343Z,5.73
2019-05-02T19:32:12.212Z,4.57
2019-05-02T19:34:43.608Z,4.73
2019-05-02T19:37:12.611Z,5.03
2019-05-02T19:39:46.879Z,5.10
2019-05-02T19:42:17.140Z,5.90
2019-05-02T19:44:43.531Z,4.00
2019-05-02T19:47:32.989Z,6.57
2019-05-02T19:50:03.050Z,7.60
2019-05-02T19:52:38.935Z,4.57
2019-05-02T19:55:03.849Z,4.77
2019-05-02T19:57:32.478Z,6.83
2019-05-02T20:00:02.702Z,7.07
2019-05-02T20:02:37.375Z,6.00
2019-05-02T20:05:03.643Z,5.07
2019-05-02T20:07:32.488Z,7.67
2019-05-02T20:10:01.904Z,5.67
2019-05-02T20:12:30.646Z,4.83
2019-05-02T20:15:01.390Z,4.17
2019-05-02T20:17:32.458Z,7.17
2019-05-02T20:20:05.989Z,4.47
2019-05-02T20:22:36.242Z,5.77
2019-05-02T20:25:05.714Z,7.77
2019-05-02T20:27:34.271Z,4.93
2019-05-02T20:30:03.192Z,4.00
2019-05-02T20:32:33.156Z,6.90
2019-05-02T20:35:01.599Z,5.10
2019-05-02T20:37:32.379Z,6.13
2019-05-02T20:40:02.625Z,6.87
2019-05-02T20:42:32.160Z,6.23
2019-05-02T20:45:02.319Z,7.00
2019-05-02T20:47:31.100Z,5.97
2019-05-02T20:50:18.021Z,6.37
2019-05-02T20:52:46.611Z,8.70
2019-05-02T20:55:16.214Z,6.53
2019-05-02T20:57:46.459Z,7.77
2019-05-02T21:00:23.448Z,7.73
2019-05-02T21:02:51.955Z,8.30
2019-05-02T21:05:27.930Z,10.50
2019-05-02T21:08:13.941Z,5.03
2019-05-02T21:10:45.064Z,9.27
2019-05-02T21:13:13.639Z,7.20
2019-05-02T21:15:42.315Z,10.63
2019-05-02T21:18:11.708Z,8.10
2019-05-02T21:20:41.819Z,9.40
2019-05-02T21:23:10.501Z,9.27
2019-05-02T21:25:42.942Z,9.30
2019-05-02T21:28:11.963Z,7.60
2019-05-02T21:30:41.618Z,7.97
2019-05-02T21:33:32.028Z,9.67
2019-05-02T21:36:00.595Z,8.90
2019-05-02T21:38:29.091Z,13.13
2019-05-02T21:40:58.131Z,14.13
2019-05-02T21:43:26.605Z,13.97
2019-05-02T21:45:55.041Z,12.10
2019-05-02T21:48:25.033Z,13.27
2019-05-02T21:51:00.225Z,12.93
2019-05-02T21:53:54.943Z,14.67
2019-05-02T21:56:28.418Z,9.33
2019-05-02T21:59:12.285Z,10.03
2019-05-02T22:01:47.181Z,9.13
2019-05-02T22:04:15.945Z,9.63
2019-05-02T22:06:44.971Z,10.00
2019-05-02T22:09:14.806Z,8.53
2019-05-02T22:11:43.285Z,12.93
2019-05-02T22:14:13.416Z,7.53
2019-05-02T22:16:42.140Z,9.13
2019-05-02T22:19:10.659Z,11.60
2019-05-02T22:21:39.114Z,11.00
2019-05-02T22:24:11.305Z,9.63
2019-05-02T22:26:39.111Z,9.63
2019-05-02T22:29:07.559Z,9.53
2019-05-02T22:31:37.844Z,10.40
2019-05-02T22:34:07.330Z,12.60
2019-05-02T22:36:36.828Z,7.93
2019-05-02T22:39:36.181Z,8.77
2019-05-02T22:42:04.877Z,13.17
2019-05-02T22:44:33.258Z,10.73
2019-05-02T22:47:01.797Z,12.80
2019-05-02T22:49:31.844Z,10.10
2019-05-02T22:52:00.528Z,11.37
2019-05-02T22:54:33.289Z,9.50
2019-05-02T22:57:00.229Z,10.43
2019-05-02T22:59:29.251Z,10.40
2019-05-02T23:01:57.832Z,9.50
2019-05-02T23:04:26.295Z,12.50
2019-05-02T23:06:54.838Z,8.97
2019-05-02T23:09:23.279Z,9.93
2019-05-02T23:11:51.988Z,11.90
2019-05-02T23:14:22.146Z,9.23
2019-05-02T23:16:52.899Z,10.93
2019-05-02T23:19:22.884Z,11.40
2019-05-02T23:21:52.676Z,10.43
2019-05-02T23:24:42.595Z,10.13
2019-05-02T23:27:19.005Z,10.40
2019-05-02T23:29:47.468Z,7.67
2019-05-02T23:32:15.954Z,8.73
2019-05-02T23:34:45.558Z,12.17
2019-05-02T23:37:14.142Z,9.63
2019-05-02T23:39:44.456Z,8.47
2019-05-02T23:42:14.864Z,13.60
2019-05-02T23:44:43.466Z,13.53
2019-05-02T23:47:11.880Z,12.67
2019-05-02T23:49:42.565Z,11.73
2019-05-02T23:52:11.768Z,14.70
2019-05-02T23:54:50.017Z,9.57
2019-05-02T23:57:12.119Z,11.90
2019-05-02T23:59:42.377Z,11.93
